AirNav   Air Wisconsin Up To $57,000 Bonus
 
 1313 users online  

55NH Oxbow Heliport
Piermont, New Hampshire, USA

GOING TO PIERMONT?


FAA INFORMATION EFFECTIVE 30 JANUARY 2020

Location

FAA Identifier: 55NH
Lat/Long: 44-00-28.9000N 072-05-22.6000W
44-00.481667N 072-05.376667W
44.0080278,-72.0896111
(estimated)
Elevation: 475 ft. / 145 m (estimated)
From city: 3 miles N of PIERMONT, NH
Time zone: UTC -5 (UTC -4 during Daylight Saving Time)
Zip code: 03779

Heliport Operations

Heliport use: Private use. Permission required prior to landing
Activation date: 03/2015
Control tower: no
ARTCC: BOSTON CENTER
FSS: BANGOR FLIGHT SERVICE STATION
Attendance: UNATNDD
Wind indicator: yes
Segmented circle: no

Nearby radio navigation aids

VOR radial/distance  VOR name  Freq  Var
MPVr123/16.2MONTPELIER VOR/DME110.8016W
LEBr030/20.5LEBANON VOR/DME113.7015W

 
NDB name  Hdg/Dist  Freq  Var  ID
HANOVER027/18.727615WLAH .-.. .- ....
MAHN236/27.538617WGMA --. -- .-

Heliport Services

Runway Information

Helipad H1

Dimensions: 33 x 33 ft. / 10 x 10 m
Surface: turf, in good condition
Traffic pattern: leftleft

Heliport Ownership and Management from official FAA records

Ownership: Privately-owned
Owner: PETER ERPELDING
255 RIVER RD
PIERMONT, NH 03779
Phone 603-272-9654
Manager: PETER ERPELDING
255 RIVER RD
PIERMONT, NH 03779
Phone 603-272-9654

Additional Remarks

FOR CD CTC BOSTON ARTCC AT 603-879-6859.

Instrument Procedures

There are no published instrument procedures at 55NH.

Some nearby airports with instrument procedures:

5B9 - Dean Memorial Airport (6 nm NE)
KMPV - Edward F Knapp State Airport (23 nm NW)
KLEB - Lebanon Municipal Airport (25 nm S)
KHIE - Mount Washington Regional Airport (32 nm NE)
KCDA - Caledonia County Airport (34 nm N)
 
Loc | Ops | Rwys | IFR | FBO | Links
Com | Nav | Svcs | Stats | Notes
Aerial photo
No photo
 
Airport distance calculator
Flying to Oxbow Heliport? Find the distance to fly.

From to 55NH

Sunrise and sunset
Times for 17-Feb-2020
 Local
(UTC-5)
 Zulu
(UTC)
Morning civil twilight06:1611:16
Sunrise06:4611:46
Sunset17:1922:19
Evening civil twilight17:4922:49

Current date and time
Zulu (UTC)  17-Feb-2020 17:27:48
Local (UTC-5)  17-Feb-2020 12:27:48
 
METAR
K1P1 
20nm SE 
171715Z AUTO 30012G20KT 10SM CLR 00/M11 A3022 RMK AO2 T00001114
KMPV 
24nm NW 
171651Z AUTO 30011KT 10SM CLR M05/M12 A3026 RMK AO2 SLP265 T10501122
KLEB 
24nm S 
171653Z 33011KT 10SM CLR 01/M10 A3022 RMK AO2 SLP240 T00111100
K1V4 
25nm N 
171654Z AUTO M04/M12 A3023 RMK AO1 SLP252 T10391117
KHIE 
32nm NE 
171652Z AUTO 32008KT 10SM OVC036 M04/M12 A3019 RMK AO2 SLP243 T10441122
KCDA 
34nm N 
171715Z AUTO 26007KT 10SM OVC033 M06/M12 A3023 RMK AO2 T10571121
KMVL 
37nm NW 
171654Z AUTO 35010G16KT 10SM SCT035 M04/M12 A3027 RMK AO2 SLP265 T10441122
KMWN 
38nm NE 
171651Z 29041KT 1/8SM FZFG BKN000 M16/M18 RMK FZFG BKN000 FZFG INTMT
KLCI 
39nm SE 
171656Z AUTO 29009G15KT 240V320 10SM CLR 02/M11 A3020 RMK AO2 SLP233 T00171106 FZRANO
KCWN 
40nm E 
171658Z AUTO 16015G25KT 10SM FEW017 FEW024 02/M03 A2984 RMK AO2 PK WND 15026/37 SLP013 T00151028 $
TAF
KMPV 
24nm NW 
171123Z 1712/1812 31009KT P6SM SCT050 FM172200 33005KT P6SM SKC FM180000 VRB03KT P6SM SKC FM180700 16005KT P6SM SCT150 FM181100 16009KT P6SM OVC100
KLEB 
24nm S 
171132Z 1712/1812 VRB03KT P6SM SCT040 FM171400 31008KT P6SM FEW045 FM180100 00000KT P6SM SKC
NOTAMs
Click for the latest NOTAMs
NOTAMs are issued by the DoD/FAA and will open in a separate window not controlled by AirNav.

 

 
 

Would you like to see your business listed on this page?

 If your business provides an interesting product or service to pilots, flight crews, aircraft, or users of the Oxbow Heliport, you should consider listing it here.  To start the listing process, click on the button below
 
Add a business
 

Other Pages about Oxbow Heliport

Update a link
 
Copyright © AirNav, LLC. All rights reserved. Privacy Policy  Contact